Sequoia National Park, California
Current Conditions -  °F | °C
As of 4:35 AM on Friday 31 Oct 2014 (Local Time) from KVIS Reporting Station
NA  
Wind Chill: 12°   Ceiling: NA
Heat Index: 12°   Visibility: 10mi
Dew Point:   Wind: 6mph
Humidity: 58%   Direction: 180°S
Pressure: 29.9"   Gusts: NA
Location:  36.5932°N, 118.838°W
Report Text: KVIS 311135Z 18005KT 10SM 12/04 A2990 RMK AO1
Loading
Personal Weather Stations






























Interactive Weather Map
Tropical Storm Tracking
New forecast layout! Learn more

10-Day Weather Forecast

Advertisements
Track Severe Weather on mobile